LYBE/BEG METAR and TAF weather

Enter ICAO airport designator
Station Type Date Time Source
LYBE METAR 2018/07/21 11:30 UTC NOAA

LYBE 211130Z VRB01KT CAVOK 30/16 Q1013 NOSIG


Station Type Date Time Source
LYBE Decoded METAR 2018/07/21 11:30 UTC NOAA

Beograd / Surcin, Serbia and Montenegro (LYBE) 44-49N 020-17E 99M
Jul 21, 2018 - 07:30 AM EDT / 2018.07.21 1130 UTC
Wind: Variable at 1 MPH (1 KT):0
Visibility: greater than 7 mile(s):0
Temperature: 86 F (30 C)
Dew Point: 60 F (16 C)
Relative Humidity: 42%
Pressure (altimeter): 29.91 in. Hg (1013 hPa)
ob: LYBE 211130Z VRB01KT CAVOK 30/16 Q1013 NOSIG
cycle: 11

Station Type Date Time Source
LYBE TAF 2018/07/21 12:21 UTC NOAA

TAF LYBE 211100Z 2112/2212 15005KT CAVOK TX32/2114Z TN20/2203Z PROB30
TEMPO 2122/2204 VRB15KT TSRA FEW030CB SCT033


Example: see airport list